N47 weather

Pottstown Municipal Airport
Pottstown, Pennsylvania, United States

Public forecast

Using degrees Fahrenheit for public forecast. Weather courtesy of forecast.io.

METAR (pilot weather report)

Closest report is Heritage Field, 5.4 nm (10.0 km) ESE. Retrieved 2019/09/23 02:54 UTC (51 minutes ago):

KPTW 230254Z AUTO 00000KT 9SM CLR 23/19 A3005 RMK AO2 SLP171 T02280189 58004

TAF (pilot weather forecast)

Forecast is more than 12 hours old.

Closest forecast is Reading Regional Carl A Spaatz Field, 15.2 nm (28.2 km) WNW. Retrieved 2019/09/22 00:36 UTC (1 day ago):

TAF KRDG 222334Z 2300/2324 19005KT P6SM FEW050 FM230200 19004KT P6SM SCT250 FM230800 VRB03KT 6SM BR SCT250 FM231400 24008KT P6SM SCT250 FM232000 25010KT P6SM BKN060